Time;durP1;ratioP1;P1;durP2;ratioP2;P2;SDS_P1;SDS_P2;PMS_P1;PMS_P2;Temp;Humidity;BMP_temperature;BMP_pressure;BME280_temperature;BME280_humidity;BME280_pressure;Samples;Min_cycle;Max_cycle;Signal;HPM_P1;HPM_P2
2022/10/17 00:00:21;;;;;;;;;;;18.50;99.90;;;;;;5014808;28;20421;-23
2022/10/17 00:02:46;;;;;;;;;;;18.50;99.90;;;;;;5014458;28;20008;-24
2022/10/17 00:05:12;;;;;;;;;;;18.50;99.90;;;;;;5014679;28;19906;-23
2022/10/17 00:07:37;;;;;;;;;;;18.50;99.90;;;;;;5014725;28;19913;-23
2022/10/17 00:10:04;;;;;;;;;;;18.50;99.90;;;;;;4996571;28;19909;-23
2022/10/17 00:12:30;;;;;;;;;;;18.40;99.90;;;;;;5013875;28;19913;-23
2022/10/17 00:14:56;;;;;;;;;;;18.40;99.90;;;;;;5014717;28;19914;-23
2022/10/17 00:17:21;;;;;;;;;;;18.40;99.90;;;;;;5015087;28;20358;-23
2022/10/17 00:19:47;;;;;;;;;;;18.40;99.90;;;;;;5015018;28;19918;-23
2022/10/17 00:22:12;;;;;;;;;;;18.40;99.90;;;;;;5014581;28;19912;-23
2022/10/17 00:24:38;;;;;;;;;;;18.40;99.90;;;;;;5014724;28;19905;-23
2022/10/17 00:27:03;;;;;;;;;;;18.40;99.90;;;;;;5014260;28;19920;-23
2022/10/17 00:29:29;;;;;;;;;;;18.40;99.90;;;;;;5014097;28;20043;-23
2022/10/17 00:31:55;;;;;;;;;;;18.40;99.90;;;;;;5013769;28;19913;-23
2022/10/17 00:34:21;;;;;;;;;;;18.40;99.90;;;;;;5012154;28;19916;-23
2022/10/17 00:36:47;;;;;;;;;;;18.40;99.90;;;;;;5013636;28;19906;-23
2022/10/17 00:39:13;;;;;;;;;;;18.40;99.90;;;;;;5013795;28;19951;-23
2022/10/17 00:41:38;;;;;;;;;;;18.40;99.90;;;;;;5013786;28;20436;-23
2022/10/17 00:44:06;;;;;;;;;;;18.30;99.90;;;;;;5013382;28;19971;-23
2022/10/17 00:46:33;;;;;;;;;;;18.40;99.90;;;;;;5013498;28;19913;-23
2022/10/17 00:49:01;;;;;;;;;;;18.40;99.90;;;;;;5013214;28;19910;-23
2022/10/17 00:51:31;;;;;;;;;;;18.40;99.90;;;;;;5013177;28;19923;-23
2022/10/17 00:53:57;;;;;;;;;;;18.40;99.90;;;;;;5012947;28;19909;-23
2022/10/17 00:56:23;;;;;;;;;;;18.40;99.90;;;;;;5013419;28;19951;-23
2022/10/17 00:58:48;;;;;;;;;;;18.30;99.90;;;;;;5012917;28;19968;-23
2022/10/17 01:01:14;;;;;;;;;;;18.30;99.90;;;;;;5013033;28;19945;-23
2022/10/17 01:03:40;;;;;;;;;;;18.30;99.90;;;;;;5011726;28;19999;-23
2022/10/17 01:06:05;;;;;;;;;;;18.30;99.90;;;;;;5012827;28;19916;-23
2022/10/17 01:08:31;;;;;;;;;;;18.30;99.90;;;;;;5013085;28;19912;-23
2022/10/17 01:10:59;;;;;;;;;;;18.30;99.90;;;;;;5013102;28;20240;-23
2022/10/17 01:13:29;;;;;;;;;;;18.30;99.90;;;;;;5012838;28;19916;-23
2022/10/17 01:16:01;;;;;;;;;;;18.30;99.90;;;;;;5012978;28;20402;-23
2022/10/17 01:18:35;;;;;;;;;;;18.30;99.90;;;;;;5012708;28;20294;-23
2022/10/17 01:21:08;;;;;;;;;;;18.30;99.90;;;;;;5013140;28;19945;-23
2022/10/17 01:23:52;;;;;;;;;;;18.30;99.90;;;;;;5012490;28;19905;-23
2022/10/17 01:26:24;;;;;;;;;;;18.30;99.90;;;;;;5013113;28;19913;-24
2022/10/17 01:28:49;;;;;;;;;;;18.30;99.90;;;;;;5012460;28;19905;-24
2022/10/17 01:31:16;;;;;;;;;;;18.20;99.90;;;;;;5012429;28;19996;-24
2022/10/17 01:33:53;;;;;;;;;;;18.20;99.90;;;;;;5012251;28;19920;-24
2022/10/17 01:36:22;;;;;;;;;;;18.20;99.90;;;;;;5012207;28;20362;-24
2022/10/17 01:38:49;;;;;;;;;;;18.20;99.90;;;;;;5012076;28;19935;-24
2022/10/17 01:41:34;;;;;;;;;;;18.20;99.90;;;;;;5012338;28;19905;-24
2022/10/17 01:44:07;;;;;;;;;;;18.20;99.90;;;;;;5012165;28;19906;-24
2022/10/17 01:46:37;;;;;;;;;;;18.20;99.90;;;;;;5012218;28;19905;-24
2022/10/17 01:49:03;;;;;;;;;;;18.20;99.90;;;;;;5012366;28;19916;-24
2022/10/17 01:51:35;;;;;;;;;;;18.20;99.90;;;;;;5012269;28;19905;-24
2022/10/17 01:54:03;;;;;;;;;;;18.20;99.90;;;;;;5011826;28;19963;-24
2022/10/17 01:56:30;;;;;;;;;;;18.20;99.90;;;;;;5012011;28;19969;-24
2022/10/17 01:58:57;;;;;;;;;;;18.10;99.90;;;;;;5012150;28;20540;-24
2022/10/17 02:01:24;;;;;;;;;;;18.20;99.90;;;;;;5011963;28;20326;-24
2022/10/17 02:03:50;;;;;;;;;;;18.20;99.90;;;;;;5011833;28;19921;-24
2022/10/17 02:06:15;;;;;;;;;;;18.20;99.90;;;;;;5012057;28;19909;-24
2022/10/17 02:08:42;;;;;;;;;;;18.10;99.90;;;;;;5011882;28;19906;-24
2022/10/17 02:11:18;;;;;;;;;;;18.10;99.90;;;;;;5012071;28;19906;-24
2022/10/17 02:13:59;;;;;;;;;;;18.20;99.90;;;;;;5012022;28;19913;-24
2022/10/17 02:16:39;;;;;;;;;;;18.10;99.90;;;;;;5012253;28;19905;-24
2022/10/17 02:19:16;;;;;;;;;;;18.10;99.90;;;;;;5011939;28;19916;-24
2022/10/17 02:21:53;;;;;;;;;;;18.10;99.90;;;;;;5011915;28;20367;-24
2022/10/17 02:24:23;;;;;;;;;;;18.10;99.90;;;;;;5011472;28;20291;-24
2022/10/17 02:26:54;;;;;;;;;;;18.10;99.90;;;;;;5011610;28;19924;-24
2022/10/17 02:29:21;;;;;;;;;;;18.10;99.90;;;;;;5011945;28;19909;-24
2022/10/17 02:32:02;;;;;;;;;;;18.10;99.90;;;;;;5011666;28;20333;-24
2022/10/17 02:34:35;;;;;;;;;;;18.10;99.90;;;;;;5011410;28;19916;-24
2022/10/17 02:37:02;;;;;;;;;;;18.10;99.90;;;;;;5011525;28;19945;-24
2022/10/17 02:39:28;;;;;;;;;;;18.10;99.90;;;;;;5011597;28;20016;-24
2022/10/17 02:41:55;;;;;;;;;;;18.10;99.90;;;;;;5011586;28;20450;-24
2022/10/17 02:44:22;;;;;;;;;;;18.10;99.90;;;;;;5011511;28;19909;-24
2022/10/17 02:46:51;;;;;;;;;;;18.10;99.90;;;;;;5011498;28;19913;-24
2022/10/17 02:49:20;;;;;;;;;;;18.10;99.90;;;;;;5011410;28;20337;-24
2022/10/17 02:52:06;;;;;;;;;;;18.00;99.90;;;;;;5013449;28;19909;-24
2022/10/17 02:54:35;;;;;;;;;;;18.00;99.90;;;;;;5011101;28;19927;-24
2022/10/17 02:57:06;;;;;;;;;;;18.00;99.90;;;;;;5015291;28;20329;-24
2022/10/17 02:59:33;;;;;;;;;;;18.00;99.90;;;;;;5015261;28;19991;-24
2022/10/17 03:02:01;;;;;;;;;;;18.00;99.90;;;;;;5015262;28;19913;-24
2022/10/17 03:04:27;;;;;;;;;;;18.00;99.90;;;;;;5015088;28;19909;-24
2022/10/17 03:06:52;;;;;;;;;;;18.00;99.90;;;;;;5016058;28;20048;-24
2022/10/17 03:09:18;;;;;;;;;;;18.00;99.90;;;;;;5016106;28;20362;-24
2022/10/17 03:11:43;;;;;;;;;;;18.00;99.90;;;;;;5015244;28;19905;-23
2022/10/17 03:14:09;;;;;;;;;;;18.00;99.90;;;;;;5014946;28;19909;-23
2022/10/17 03:16:34;;;;;;;;;;;18.00;99.90;;;;;;5014957;28;19905;-23
2022/10/17 03:19:00;;;;;;;;;;;18.00;99.90;;;;;;5015971;28;19912;-23
2022/10/17 03:21:25;;;;;;;;;;;18.00;99.90;;;;;;5015197;28;19909;-23
2022/10/17 03:23:51;;;;;;;;;;;18.00;99.90;;;;;;5014903;28;19995;-23
2022/10/17 03:26:16;;;;;;;;;;;18.00;99.90;;;;;;5014759;28;20377;-23
2022/10/17 03:28:42;;;;;;;;;;;18.00;99.90;;;;;;5014710;28;19910;-23
2022/10/17 03:31:08;;;;;;;;;;;18.00;99.90;;;;;;5014895;28;19910;-23
2022/10/17 03:33:34;;;;;;;;;;;18.00;99.90;;;;;;5014557;28;19905;-23
2022/10/17 03:36:03;;;;;;;;;;;17.90;99.90;;;;;;5015161;28;20330;-23
2022/10/17 03:38:29;;;;;;;;;;;18.00;99.90;;;;;;5014619;28;19909;-23
2022/10/17 03:40:55;;;;;;;;;;;17.90;99.90;;;;;;5014744;28;19906;-23
2022/10/17 03:43:20;;;;;;;;;;;17.90;99.90;;;;;;5014249;28;19928;-23
2022/10/17 03:45:46;;;;;;;;;;;17.90;99.90;;;;;;5014404;28;19959;-23
2022/10/17 03:48:11;;;;;;;;;;;17.90;99.90;;;;;;5014605;28;19905;-23
2022/10/17 03:50:37;;;;;;;;;;;17.90;99.90;;;;;;5014374;28;20004;-23
2022/10/17 03:53:02;;;;;;;;;;;17.90;99.90;;;;;;5014101;28;19951;-23
2022/10/17 03:55:28;;;;;;;;;;;17.90;99.90;;;;;;5014109;28;19909;-23
2022/10/17 03:57:53;;;;;;;;;;;17.90;99.90;;;;;;5014108;28;19920;-23
2022/10/17 04:00:19;;;;;;;;;;;17.90;99.90;;;;;;5014451;28;20012;-23
2022/10/17 04:02:44;;;;;;;;;;;17.90;99.90;;;;;;5013524;28;19913;-23
2022/10/17 04:05:10;;;;;;;;;;;17.90;99.90;;;;;;5012673;28;19905;-23
2022/10/17 04:07:36;;;;;;;;;;;17.90;99.90;;;;;;5014077;28;20666;-23
2022/10/17 04:10:02;;;;;;;;;;;17.90;99.90;;;;;;5014059;28;19905;-23
2022/10/17 04:12:27;;;;;;;;;;;17.90;99.90;;;;;;5013731;28;19928;-23
2022/10/17 04:14:53;;;;;;;;;;;17.90;99.90;;;;;;5013860;28;19999;-23
2022/10/17 04:17:19;;;;;;;;;;;17.90;99.90;;;;;;5013984;28;19907;-23
2022/10/17 04:19:44;;;;;;;;;;;17.90;99.90;;;;;;5013869;28;20430;-23
2022/10/17 04:22:10;;;;;;;;;;;17.90;99.90;;;;;;5013815;28;19909;-23
2022/10/17 04:24:35;;;;;;;;;;;17.90;99.90;;;;;;5013635;28;20329;-23
2022/10/17 04:27:01;;;;;;;;;;;17.90;99.90;;;;;;5013492;28;19918;-23
2022/10/17 04:29:26;;;;;;;;;;;17.90;99.90;;;;;;5013659;28;20008;-23
2022/10/17 04:31:52;;;;;;;;;;;17.90;99.90;;;;;;5013849;28;19909;-23
2022/10/17 04:34:17;;;;;;;;;;;17.90;99.90;;;;;;5013294;28;19996;-23
2022/10/17 04:36:43;;;;;;;;;;;17.90;99.90;;;;;;5013501;28;20362;-23
2022/10/17 04:39:08;;;;;;;;;;;17.90;99.90;;;;;;5014040;28;20165;-23
2022/10/17 04:41:34;;;;;;;;;;;17.90;99.90;;;;;;5012189;28;20283;-23
2022/10/17 04:43:59;;;;;;;;;;;17.90;99.90;;;;;;5013167;28;19963;-23
2022/10/17 04:46:25;;;;;;;;;;;17.90;99.90;;;;;;5013463;28;19958;-23
2022/10/17 04:48:51;;;;;;;;;;;17.90;99.90;;;;;;5013286;28;20008;-23
2022/10/17 04:51:17;;;;;;;;;;;17.80;99.90;;;;;;5013230;28;20366;-23
2022/10/17 04:53:43;;;;;;;;;;;17.90;99.90;;;;;;5012969;28;20386;-23
2022/10/17 04:56:15;;;;;;;;;;;17.80;99.90;;;;;;5012936;28;19905;-23
2022/10/17 04:58:41;;;;;;;;;;;17.80;99.90;;;;;;5013327;28;19912;-23
2022/10/17 05:01:07;;;;;;;;;;;17.80;99.90;;;;;;5011750;28;19914;-23
2022/10/17 05:03:34;;;;;;;;;;;17.80;99.90;;;;;;5012847;28;20287;-23
2022/10/17 05:06:03;;;;;;;;;;;17.80;99.90;;;;;;5012952;28;19920;-23
2022/10/17 05:08:29;;;;;;;;;;;17.80;99.90;;;;;;5013302;28;20375;-23
2022/10/17 05:10:55;;;;;;;;;;;17.80;99.90;;;;;;5013236;28;19937;-23
2022/10/17 05:13:20;;;;;;;;;;;17.80;99.90;;;;;;5012073;28;19932;-23
2022/10/17 05:15:45;;;;;;;;;;;17.80;99.90;;;;;;5012383;28;19935;-23
2022/10/17 05:18:11;;;;;;;;;;;17.80;99.90;;;;;;5012676;28;19906;-23
2022/10/17 05:20:37;;;;;;;;;;;17.80;99.90;;;;;;5012645;28;19906;-23
2022/10/17 05:23:02;;;;;;;;;;;17.80;99.90;;;;;;5012702;28;19963;-23
2022/10/17 05:25:28;;;;;;;;;;;17.80;99.90;;;;;;5012419;28;19913;-23
2022/10/17 05:27:53;;;;;;;;;;;17.70;99.90;;;;;;5012606;28;19917;-23
2022/10/17 05:30:19;;;;;;;;;;;17.80;99.90;;;;;;5012906;28;20354;-23
2022/10/17 05:32:44;;;;;;;;;;;17.70;99.90;;;;;;5012594;28;19909;-23
2022/10/17 05:35:10;;;;;;;;;;;17.70;99.90;;;;;;5012312;28;20271;-23
2022/10/17 05:37:35;;;;;;;;;;;17.80;99.90;;;;;;5012376;28;19906;-23
2022/10/17 05:40:01;;;;;;;;;;;17.80;99.90;;;;;;5012393;28;19912;-23
2022/10/17 05:42:26;;;;;;;;;;;17.70;99.90;;;;;;5012320;28;19905;-23
2022/10/17 05:44:52;;;;;;;;;;;17.70;99.90;;;;;;5012234;28;19916;-23
2022/10/17 05:47:17;;;;;;;;;;;17.70;99.90;;;;;;5012936;28;19905;-23
2022/10/17 05:49:43;;;;;;;;;;;17.70;99.90;;;;;;5012309;28;19905;-23
2022/10/17 05:52:08;;;;;;;;;;;17.80;99.90;;;;;;5012294;28;19912;-23
2022/10/17 05:54:34;;;;;;;;;;;17.70;99.90;;;;;;5011826;28;19963;-23
2022/10/17 05:56:59;;;;;;;;;;;17.70;99.90;;;;;;5012110;28;19909;-23
2022/10/17 05:59:25;;;;;;;;;;;17.70;99.90;;;;;;5012099;28;19905;-23
2022/10/17 06:01:51;;;;;;;;;;;17.70;99.90;;;;;;5012362;28;19910;-23
2022/10/17 06:04:16;;;;;;;;;;;17.70;99.90;;;;;;5011950;28;19948;-23
2022/10/17 06:06:42;;;;;;;;;;;17.70;99.90;;;;;;5012197;28;19912;-22
2022/10/17 06:09:07;;;;;;;;;;;17.70;99.90;;;;;;5011901;28;19936;-22
2022/10/17 06:11:34;;;;;;;;;;;17.70;99.90;;;;;;5012690;28;19905;-22
2022/10/17 06:13:59;;;;;;;;;;;17.70;99.90;;;;;;5012657;28;20442;-23
2022/10/17 06:16:25;;;;;;;;;;;17.70;99.90;;;;;;5013568;28;19945;-22
2022/10/17 06:18:51;;;;;;;;;;;17.70;99.90;;;;;;5015779;28;19912;-23
2022/10/17 06:21:18;;;;;;;;;;;17.70;99.90;;;;;;5014805;28;19909;-23
2022/10/17 06:23:44;;;;;;;;;;;17.70;99.90;;;;;;5011893;28;19951;-23
2022/10/17 06:26:09;;;;;;;;;;;17.60;99.90;;;;;;5016499;28;19967;-23
2022/10/17 06:28:35;;;;;;;;;;;17.70;99.90;;;;;;5017765;28;20020;-23
2022/10/17 06:31:05;;;;;;;;;;;17.70;99.90;;;;;;5016648;28;19992;-23
2022/10/17 06:33:30;;;;;;;;;;;17.70;99.90;;;;;;5012550;28;19906;-23
2022/10/17 06:35:56;;;;;;;;;;;17.70;99.90;;;;;;5011836;28;19919;-23
2022/10/17 06:38:21;;;;;;;;;;;17.70;99.90;;;;;;5011739;28;19906;-23
2022/10/17 06:40:47;;;;;;;;;;;17.70;99.90;;;;;;5011898;28;20370;-23
2022/10/17 06:43:13;;;;;;;;;;;17.70;99.90;;;;;;5011846;28;19963;-23
2022/10/17 06:45:38;;;;;;;;;;;17.70;99.90;;;;;;5011963;28;20361;-23
2022/10/17 06:48:04;;;;;;;;;;;17.70;99.90;;;;;;5010530;28;19909;-23
2022/10/17 06:50:30;;;;;;;;;;;17.70;99.90;;;;;;5011678;28;19996;-23
2022/10/17 06:52:55;;;;;;;;;;;17.70;99.90;;;;;;5011428;28;20032;-23
2022/10/17 06:55:21;;;;;;;;;;;17.70;99.90;;;;;;5013893;28;19960;-23
2022/10/17 06:57:46;;;;;;;;;;;17.70;99.90;;;;;;5011892;28;19909;-23
2022/10/17 07:00:12;;;;;;;;;;;17.70;99.90;;;;;;5012550;28;20355;-23
2022/10/17 07:02:37;;;;;;;;;;;17.70;99.90;;;;;;5011480;28;19905;-23
2022/10/17 07:05:03;;;;;;;;;;;17.70;99.90;;;;;;5010342;28;19952;-23
2022/10/17 07:07:31;;;;;;;;;;;17.80;99.90;;;;;;5011401;28;19905;-23
2022/10/17 07:09:57;;;;;;;;;;;17.80;99.90;;;;;;5010295;28;19905;-23
2022/10/17 07:12:23;;;;;;;;;;;17.80;99.90;;;;;;5010179;28;19928;-23
2022/10/17 07:14:49;;;;;;;;;;;17.80;99.90;;;;;;5011230;28;20003;-23
2022/10/17 07:17:17;;;;;;;;;;;17.80;99.90;;;;;;5011416;28;19982;-23
2022/10/17 07:19:43;;;;;;;;;;;17.90;99.90;;;;;;5011256;28;19905;-23
2022/10/17 07:22:09;;;;;;;;;;;17.90;99.90;;;;;;5011275;28;20397;-23
2022/10/17 07:24:34;;;;;;;;;;;17.90;99.90;;;;;;5011258;28;19960;-23
2022/10/17 07:27:00;;;;;;;;;;;17.90;99.90;;;;;;5011518;28;19921;-24
2022/10/17 07:29:25;;;;;;;;;;;17.90;99.90;;;;;;5011201;28;19935;-23
2022/10/17 07:31:51;;;;;;;;;;;17.90;99.90;;;;;;5011158;28;19905;-23
2022/10/17 07:34:17;;;;;;;;;;;18.00;99.90;;;;;;5010916;28;19913;-23
2022/10/17 07:36:42;;;;;;;;;;;18.00;99.90;;;;;;5011254;28;19947;-23
2022/10/17 07:39:08;;;;;;;;;;;18.00;99.90;;;;;;5014706;28;20385;-23
2022/10/17 07:41:33;;;;;;;;;;;18.00;99.90;;;;;;5013327;28;20382;-23
2022/10/17 07:43:59;;;;;;;;;;;18.10;99.90;;;;;;5014309;28;20366;-23
2022/10/17 07:46:24;;;;;;;;;;;18.10;99.90;;;;;;5014507;28;19905;-23
2022/10/17 07:48:50;;;;;;;;;;;18.10;99.90;;;;;;5015013;28;20094;-23
2022/10/17 07:51:17;;;;;;;;;;;18.10;99.90;;;;;;5014330;28;20000;-23
2022/10/17 07:53:43;;;;;;;;;;;18.10;99.90;;;;;;5014135;28;19913;-23
2022/10/17 07:56:09;;;;;;;;;;;18.20;99.90;;;;;;5014275;28;19968;-23
2022/10/17 07:58:36;;;;;;;;;;;18.20;99.90;;;;;;5014230;28;19905;-23
2022/10/17 08:01:02;;;;;;;;;;;18.20;99.90;;;;;;5014210;28;19906;-24
2022/10/17 08:03:28;;;;;;;;;;;18.20;99.90;;;;;;5014001;28;20383;-24
2022/10/17 08:06:00;;;;;;;;;;;18.20;99.90;;;;;;5014504;28;20346;-24
2022/10/17 08:08:26;;;;;;;;;;;18.30;99.90;;;;;;5014265;28;19909;-24
2022/10/17 08:10:52;;;;;;;;;;;18.20;99.90;;;;;;5012774;28;20347;-24
2022/10/17 08:13:18;;;;;;;;;;;18.30;99.90;;;;;;5013935;28;19909;-23
2022/10/17 08:15:46;;;;;;;;;;;18.30;99.90;;;;;;5012521;28;19909;-23
2022/10/17 08:18:13;;;;;;;;;;;18.30;99.90;;;;;;5013844;28;19959;-23
2022/10/17 08:20:39;;;;;;;;;;;18.30;99.90;;;;;;5012557;28;19917;-23
2022/10/17 08:23:04;;;;;;;;;;;18.30;99.90;;;;;;5013687;28;20291;-23
2022/10/17 08:25:30;;;;;;;;;;;18.40;99.90;;;;;;5014117;28;20271;-23
2022/10/17 08:27:56;;;;;;;;;;;18.40;99.90;;;;;;5014109;28;19912;-23
2022/10/17 08:30:22;;;;;;;;;;;18.40;99.90;;;;;;5013666;28;19909;-23
2022/10/17 08:32:47;;;;;;;;;;;18.40;99.90;;;;;;5013834;28;20008;-23
2022/10/17 08:35:13;;;;;;;;;;;18.40;99.90;;;;;;5013394;28;19920;-23
2022/10/17 08:37:39;;;;;;;;;;;18.50;99.90;;;;;;5013722;28;19996;-23
2022/10/17 08:40:05;;;;;;;;;;;18.50;99.90;;;;;;5013741;28;20064;-23
2022/10/17 08:42:42;;;;;;;;;;;18.50;99.90;;;;;;5014313;28;20381;-23
2022/10/17 08:45:15;;;;;;;;;;;18.50;99.90;;;;;;5012724;28;19906;-23
2022/10/17 08:47:44;;;;;;;;;;;18.60;99.90;;;;;;5013953;28;19935;-23
2022/10/17 08:50:13;;;;;;;;;;;18.60;99.90;;;;;;5012631;28;20370;-23
2022/10/17 08:52:41;;;;;;;;;;;18.60;99.90;;;;;;5013163;28;19913;-23
2022/10/17 08:55:15;;;;;;;;;;;18.70;99.90;;;;;;5013281;28;19909;-23
2022/10/17 08:57:40;;;;;;;;;;;18.70;99.90;;;;;;5013127;28;19917;-23
2022/10/17 09:00:13;;;;;;;;;;;18.70;99.90;;;;;;5013011;28;20378;-23
2022/10/17 09:02:57;;;;;;;;;;;18.70;99.90;;;;;;5012893;28;20383;-23
2022/10/17 09:05:29;;;;;;;;;;;18.70;99.90;;;;;;5011812;28;19912;-23
2022/10/17 09:07:55;;;;;;;;;;;18.80;99.90;;;;;;5013088;28;19912;-23
2022/10/17 09:10:20;;;;;;;;;;;18.80;99.90;;;;;;5012858;28;19925;-23
2022/10/17 09:12:50;;;;;;;;;;;18.80;99.90;;;;;;5012638;28;20385;-23
2022/10/17 09:15:33;;;;;;;;;;;18.80;99.90;;;;;;5012714;28;19918;-23
2022/10/17 09:18:02;;;;;;;;;;;18.80;99.90;;;;;;5012912;28;20394;-23
2022/10/17 09:20:39;;;;;;;;;;;18.80;99.90;;;;;;5013124;28;19913;-23
2022/10/17 09:23:12;;;;;;;;;;;18.80;99.90;;;;;;5012528;28;19913;-23
2022/10/17 09:25:42;;;;;;;;;;;18.70;99.90;;;;;;5012744;28;20378;-23
2022/10/17 09:28:08;;;;;;;;;;;18.80;99.90;;;;;;5012553;28;19928;-23
2022/10/17 09:30:44;;;;;;;;;;;18.80;99.90;;;;;;5015818;28;20347;-23
2022/10/17 09:33:14;;;;;;;;;;;18.80;99.90;;;;;;5013202;28;20445;-23
2022/10/17 09:35:40;;;;;;;;;;;18.80;99.90;;;;;;5013006;28;19913;-23
2022/10/17 09:38:11;;;;;;;;;;;18.80;99.90;;;;;;5012464;28;19905;-23
2022/10/17 09:40:36;;;;;;;;;;;18.80;99.90;;;;;;5012494;28;19937;-23
2022/10/17 09:43:04;;;;;;;;;;;18.80;99.90;;;;;;5012495;28;20276;-23
2022/10/17 09:45:32;;;;;;;;;;;18.80;99.90;;;;;;5011054;28;19952;-23
2022/10/17 09:48:03;;;;;;;;;;;18.80;99.90;;;;;;5014313;28;19905;-23
2022/10/17 09:50:30;;;;;;;;;;;18.80;99.90;;;;;;5019918;28;19916;-23
2022/10/17 09:52:56;;;;;;;;;;;18.80;99.90;;;;;;5019672;28;19905;-23
2022/10/17 09:55:33;;;;;;;;;;;18.90;99.90;;;;;;5012739;28;19964;-23
2022/10/17 09:58:00;;;;;;;;;;;18.90;99.90;;;;;;5012900;28;19916;-23
2022/10/17 10:00:33;;;;;;;;;;;18.90;99.90;;;;;;5012681;28;20389;-23
2022/10/17 10:03:08;;;;;;;;;;;18.90;99.90;;;;;;5012439;28;20349;-23
2022/10/17 10:05:33;;;;;;;;;;;19.00;99.90;;;;;;5012276;28;20357;-23
2022/10/17 10:08:02;;;;;;;;;;;18.90;99.90;;;;;;5012080;28;19948;-23
2022/10/17 10:10:28;;;;;;;;;;;19.00;99.90;;;;;;5013291;28;19916;-23
2022/10/17 10:13:02;;;;;;;;;;;19.00;99.90;;;;;;5011764;28;19959;-23
2022/10/17 10:15:36;;;;;;;;;;;19.00;99.90;;;;;;5011975;28;19920;-23
2022/10/17 10:18:02;;;;;;;;;;;19.00;99.90;;;;;;5012395;28;19951;-23
2022/10/17 10:20:32;;;;;;;;;;;19.10;99.90;;;;;;5012497;28;19905;-23
2022/10/17 10:23:11;;;;;;;;;;;19.10;99.90;;;;;;5011737;28;19905;-23
2022/10/17 10:25:36;;;;;;;;;;;19.10;99.90;;;;;;5012293;28;19913;-23
2022/10/17 10:28:08;;;;;;;;;;;19.10;99.90;;;;;;5010588;28;19912;-23
2022/10/17 10:30:33;;;;;;;;;;;19.10;99.90;;;;;;5012230;28;19940;-24
2022/10/17 10:32:59;;;;;;;;;;;19.20;99.90;;;;;;5013638;28;20181;-24
2022/10/17 10:35:33;;;;;;;;;;;19.20;99.90;;;;;;5012414;28;19909;-24
2022/10/17 10:38:00;;;;;;;;;;;19.30;99.90;;;;;;5011967;28;19913;-24
2022/10/17 10:40:36;;;;;;;;;;;19.40;99.90;;;;;;5011807;28;19935;-24
2022/10/17 10:43:02;;;;;;;;;;;19.40;99.90;;;;;;5011625;28;19909;-24
2022/10/17 10:45:39;;;;;;;;;;;19.40;99.90;;;;;;5011859;28;19909;-24
2022/10/17 10:48:15;;;;;;;;;;;19.40;99.90;;;;;;5010463;28;19940;-24
2022/10/17 10:50:40;;;;;;;;;;;19.50;99.90;;;;;;5010402;28;20286;-24
2022/10/17 10:53:13;;;;;;;;;;;19.50;99.90;;;;;;5011596;28;19913;-24
2022/10/17 10:55:43;;;;;;;;;;;19.50;99.90;;;;;;5011718;28;19909;-24
2022/10/17 10:58:32;;;;;;;;;;;19.50;99.90;;;;;;5011730;28;19944;-24
2022/10/17 11:01:00;;;;;;;;;;;19.60;99.90;;;;;;5010447;28;19920;-23
2022/10/17 11:03:30;;;;;;;;;;;19.70;99.90;;;;;;5011784;28;19997;-24
2022/10/17 11:05:58;;;;;;;;;;;19.90;99.90;;;;;;5011931;28;19906;-24
2022/10/17 11:08:27;;;;;;;;;;;20.00;99.90;;;;;;5012114;28;19910;-24
2022/10/17 11:10:53;;;;;;;;;;;20.00;99.90;;;;;;5012062;28;19909;-24
2022/10/17 11:13:22;;;;;;;;;;;20.00;99.90;;;;;;5014400;28;19905;-24
2022/10/17 11:15:50;;;;;;;;;;;20.00;99.90;;;;;;5015233;28;19963;-24
2022/10/17 11:18:15;;;;;;;;;;;20.00;99.90;;;;;;5015493;28;19905;-24
2022/10/17 11:20:41;;;;;;;;;;;20.00;99.90;;;;;;5015346;28;19915;-24
2022/10/17 11:23:25;;;;;;;;;;;20.00;99.90;;;;;;5015262;28;19909;-24
2022/10/17 11:25:52;;;;;;;;;;;20.00;99.90;;;;;;5014782;28;20286;-24
2022/10/17 11:28:19;;;;;;;;;;;19.90;99.90;;;;;;5015087;28;19917;-24
2022/10/17 11:30:44;;;;;;;;;;;20.00;99.90;;;;;;5015273;28;19909;-24
2022/10/17 11:33:12;;;;;;;;;;;20.00;99.90;;;;;;5014883;28;19912;-24
2022/10/17 11:35:40;;;;;;;;;;;20.00;99.90;;;;;;5014989;28;19925;-24
2022/10/17 11:38:13;;;;;;;;;;;20.00;99.90;;;;;;5015084;28;19912;-24
2022/10/17 11:40:41;;;;;;;;;;;20.00;99.90;;;;;;5014994;28;20006;-24
2022/10/17 11:43:09;;;;;;;;;;;20.00;99.90;;;;;;5014419;28;19905;-24
2022/10/17 11:45:39;;;;;;;;;;;20.00;99.90;;;;;;5013305;28;19909;-24
2022/10/17 11:48:24;;;;;;;;;;;20.00;99.90;;;;;;5014643;28;19905;-24
2022/10/17 11:50:53;;;;;;;;;;;20.00;99.90;;;;;;5013001;28;19916;-24
2022/10/17 11:53:23;;;;;;;;;;;20.10;99.90;;;;;;5014396;28;19928;-24
2022/10/17 11:55:49;;;;;;;;;;;20.10;99.90;;;;;;5014443;28;19909;-24
2022/10/17 11:58:33;;;;;;;;;;;20.10;99.90;;;;;;5014773;28;19928;-24
2022/10/17 12:01:05;;;;;;;;;;;20.10;99.90;;;;;;5014624;28;20307;-24
2022/10/17 12:03:50;;;;;;;;;;;20.10;99.90;;;;;;5014219;28;19909;-24
2022/10/17 12:06:31;;;;;;;;;;;20.10;99.90;;;;;;5014506;28;20347;-24
2022/10/17 12:09:09;;;;;;;;;;;20.20;99.90;;;;;;5014600;28;19913;-24
2022/10/17 12:11:37;;;;;;;;;;;20.20;99.90;;;;;;5014239;28;20047;-24
2022/10/17 12:14:23;;;;;;;;;;;20.20;99.90;;;;;;5013803;28;20529;-23
2022/10/17 12:16:49;;;;;;;;;;;20.20;99.90;;;;;;5014190;28;19905;-24
2022/10/17 12:19:20;;;;;;;;;;;20.20;99.90;;;;;;5012926;28;19905;-24
2022/10/17 12:21:59;;;;;;;;;;;20.20;99.90;;;;;;5014214;28;20283;-24
2022/10/17 12:24:42;;;;;;;;;;;20.30;99.90;;;;;;5013439;28;20043;-24
2022/10/17 12:27:22;;;;;;;;;;;20.20;99.90;;;;;;5012438;28;19952;-24
2022/10/17 12:29:49;;;;;;;;;;;20.20;99.90;;;;;;5013531;28;19909;-24
2022/10/17 12:32:15;;;;;;;;;;;20.30;99.90;;;;;;5013493;28;19916;-24
2022/10/17 12:34:50;;;;;;;;;;;20.30;99.90;;;;;;5013251;28;19909;-23
2022/10/17 12:37:35;;;;;;;;;;;20.20;99.90;;;;;;5013903;28;19995;-24
2022/10/17 12:40:01;;;;;;;;;;;20.20;99.90;;;;;;5013894;28;19913;-24
2022/10/17 12:42:30;;;;;;;;;;;20.20;99.90;;;;;;5013729;28;19909;-24
2022/10/17 12:44:56;;;;;;;;;;;20.30;99.90;;;;;;5013718;28;20426;-24
2022/10/17 12:47:35;;;;;;;;;;;20.30;99.90;;;;;;5013801;28;19937;-24
2022/10/17 12:50:00;;;;;;;;;;;20.20;99.90;;;;;;5013568;28;19992;-24
2022/10/17 12:52:33;;;;;;;;;;;20.30;99.90;;;;;;5013264;28;19940;-24
2022/10/17 12:55:02;;;;;;;;;;;20.30;99.90;;;;;;5012885;28;19913;-24
2022/10/17 12:57:34;;;;;;;;;;;20.30;99.90;;;;;;5013129;28;19955;-24
2022/10/17 13:00:11;;;;;;;;;;;20.30;99.90;;;;;;5013517;28;20304;-24
2022/10/17 13:02:36;;;;;;;;;;;20.30;99.90;;;;;;5012949;28;19906;-24
2022/10/17 13:05:06;;;;;;;;;;;20.30;99.90;;;;;;5012935;28;19906;-24
2022/10/17 13:07:32;;;;;;;;;;;20.40;99.90;;;;;;5012994;28;19912;-24
2022/10/17 13:10:03;;;;;;;;;;;20.40;99.90;;;;;;5012894;28;19913;-24
2022/10/17 13:12:31;;;;;;;;;;;20.40;99.90;;;;;;5012872;28;19905;-24
2022/10/17 13:14:56;;;;;;;;;;;20.30;99.90;;;;;;5012746;28;19920;-24
2022/10/17 13:17:24;;;;;;;;;;;20.40;99.90;;;;;;5012722;28;19992;-24
2022/10/17 13:19:50;;;;;;;;;;;20.40;99.90;;;;;;5012974;28;19915;-23
2022/10/17 13:22:18;;;;;;;;;;;20.40;99.90;;;;;;5012738;28;20000;-24
2022/10/17 13:24:45;;;;;;;;;;;20.40;99.90;;;;;;5011020;28;20303;-24
2022/10/17 13:27:30;;;;;;;;;;;20.40;99.90;;;;;;5012949;28;19924;-24
2022/10/17 13:29:56;;;;;;;;;;;20.40;99.90;;;;;;5012806;28;20628;-24
2022/10/17 13:32:22;;;;;;;;;;;20.40;99.90;;;;;;5012481;28;19912;-23
2022/10/17 13:35:08;;;;;;;;;;;20.40;99.90;;;;;;5011587;28;19955;-24
2022/10/17 13:37:33;;;;;;;;;;;20.30;99.90;;;;;;5012030;28;19967;-24
2022/10/17 13:39:59;;;;;;;;;;;20.40;99.90;;;;;;5012506;28;20347;-24
2022/10/17 13:42:27;;;;;;;;;;;20.30;99.90;;;;;;5011866;28;20386;-24
2022/10/17 13:44:52;;;;;;;;;;;20.40;99.90;;;;;;5011821;28;20000;-24
2022/10/17 13:47:28;;;;;;;;;;;20.40;99.90;;;;;;5012272;28;20000;-24
2022/10/17 13:49:55;;;;;;;;;;;20.40;99.90;;;;;;5012330;28;19913;-24
2022/10/17 13:52:22;;;;;;;;;;;20.40;99.90;;;;;;5012466;28;19905;-24
2022/10/17 13:54:52;;;;;;;;;;;20.40;99.90;;;;;;5012044;28;20374;-24
2022/10/17 13:57:25;;;;;;;;;;;20.40;99.90;;;;;;5012153;28;19913;-24
2022/10/17 13:59:53;;;;;;;;;;;20.40;99.90;;;;;;5012047;28;19913;-24
2022/10/17 14:02:20;;;;;;;;;;;20.40;99.90;;;;;;5011945;28;19906;-24
2022/10/17 14:04:46;;;;;;;;;;;20.40;99.90;;;;;;5011889;28;19905;-24
2022/10/17 14:07:24;;;;;;;;;;;20.40;99.90;;;;;;5010596;28;20084;-24
2022/10/17 14:09:50;;;;;;;;;;;20.40;99.90;;;;;;5012375;28;19928;-24
2022/10/17 14:12:17;;;;;;;;;;;20.40;99.90;;;;;;5012296;28;20363;-24
2022/10/17 14:14:46;;;;;;;;;;;20.40;99.90;;;;;;5011836;28;19952;-24
2022/10/17 14:17:12;;;;;;;;;;;20.40;99.90;;;;;;5011873;28;19988;-23
2022/10/17 14:19:38;;;;;;;;;;;20.40;99.90;;;;;;5012007;28;19906;-24
2022/10/17 14:22:16;;;;;;;;;;;20.40;99.90;;;;;;5011893;28;19909;-24